createdAt,value
2017-05-28T00:00:58.229Z,0
2017-05-28T00:02:20.685Z,0
2017-05-28T00:03:42.834Z,0
2017-05-28T00:05:05.006Z,0
2017-05-28T00:06:27.174Z,0
2017-05-28T00:07:49.435Z,0
2017-05-28T00:09:11.504Z,0
2017-05-28T00:10:33.341Z,0
2017-05-28T00:11:55.185Z,0
2017-05-28T00:13:17.340Z,0
2017-05-28T00:14:39.934Z,0
2017-05-28T00:16:01.759Z,0
2017-05-28T00:17:24.236Z,0
2017-05-28T00:18:46.691Z,0
2017-05-28T00:20:08.551Z,0
2017-05-28T00:21:31.021Z,0
2017-05-28T00:22:53.329Z,0
2017-05-28T00:24:15.539Z,0
2017-05-28T00:25:38.160Z,0
2017-05-28T00:26:59.761Z,0
2017-05-28T00:28:21.614Z,0
2017-05-28T00:29:43.845Z,0
2017-05-28T00:31:06.684Z,0
2017-05-28T00:32:28.544Z,0
2017-05-28T00:33:51.020Z,0
2017-05-28T00:35:12.905Z,0
2017-05-28T00:36:35.068Z,0
2017-05-28T00:37:57.225Z,0
2017-05-28T00:39:19.064Z,0
2017-05-28T00:40:40.595Z,0
2017-05-28T00:42:03.424Z,0
2017-05-28T00:43:25.563Z,0
2017-05-28T00:44:47.402Z,0
2017-05-28T00:46:09.282Z,0
2017-05-28T00:47:31.775Z,0
2017-05-28T00:48:54.031Z,0
2017-05-28T00:50:15.854Z,0
2017-05-28T00:51:37.375Z,0
2017-05-28T00:52:59.833Z,0
2017-05-28T00:54:21.697Z,0
2017-05-28T00:55:44.309Z,0
2017-05-28T00:57:05.814Z,0
2017-05-28T00:58:28.226Z,0
2017-05-28T00:59:50.673Z,0
2017-05-28T01:01:12.525Z,0
2017-05-28T01:02:34.447Z,0
2017-05-28T01:03:56.665Z,0
2017-05-28T01:05:18.235Z,0
2017-05-28T01:06:40.045Z,0
2017-05-28T01:08:01.865Z,0
2017-05-28T01:09:24.453Z,0
2017-05-28T01:10:45.965Z,0
2017-05-28T01:12:08.134Z,0
2017-05-28T01:13:30.405Z,0
2017-05-28T01:14:53.134Z,0
2017-05-28T01:16:14.955Z,0
2017-05-28T01:17:36.466Z,0
2017-05-28T01:18:58.949Z,0
2017-05-28T01:20:21.347Z,0
2017-05-28T01:21:43.503Z,0
2017-05-28T01:23:05.676Z,0
2017-05-28T01:24:27.823Z,0
2017-05-28T01:25:50.636Z,0
2017-05-28T01:27:12.789Z,0
2017-05-28T01:28:35.255Z,0
2017-05-28T01:29:57.085Z,0
2017-05-28T01:31:19.526Z,0
2017-05-28T01:32:41.667Z,0
2017-05-28T01:34:03.502Z,0
2017-05-28T01:35:24.796Z,0
2017-05-28T01:36:47.314Z,0
2017-05-28T01:38:08.835Z,0
2017-05-28T01:39:30.338Z,0
2017-05-28T01:40:52.525Z,0
2017-05-28T01:42:15.027Z,0
2017-05-28T01:43:36.919Z,0
2017-05-28T01:44:58.446Z,0
2017-05-28T01:46:20.281Z,0
2017-05-28T01:47:41.796Z,0
2017-05-28T01:49:03.973Z,0
2017-05-28T01:50:25.802Z,0
2017-05-28T01:51:47.692Z,0
2017-05-28T01:53:09.887Z,0
2017-05-28T01:54:32.056Z,0
2017-05-28T01:55:54.248Z,0
2017-05-28T01:57:16.867Z,0
2017-05-28T01:58:38.982Z,0
2017-05-28T02:00:00.826Z,0
2017-05-28T02:01:22.986Z,0
2017-05-28T02:02:45.155Z,0
2017-05-28T02:04:06.843Z,0
2017-05-28T02:05:28.810Z,0
2017-05-28T02:06:50.644Z,0
2017-05-28T02:08:11.895Z,0
2017-05-28T02:09:34.019Z,0
2017-05-28T02:10:56.186Z,0
2017-05-28T02:12:18.785Z,0
2017-05-28T02:13:40.635Z,0
2017-05-28T02:15:03.584Z,0
2017-05-28T02:16:25.436Z,0
2017-05-28T02:17:47.594Z,0
2017-05-28T02:19:09.426Z,0
2017-05-28T02:20:31.878Z,0
2017-05-28T02:21:54.104Z,0
2017-05-28T02:23:16.267Z,0
2017-05-28T02:24:38.642Z,0
2017-05-28T02:26:01.189Z,0
2017-05-28T02:27:23.333Z,0
2017-05-28T02:28:44.865Z,0
2017-05-28T02:30:06.419Z,0
2017-05-28T02:31:28.625Z,0
2017-05-28T02:32:50.825Z,0
2017-05-28T02:34:12.415Z,0
2017-05-28T02:35:34.906Z,0
2017-05-28T02:36:57.085Z,0
2017-05-28T02:38:19.556Z,0
2017-05-28T02:39:42.045Z,0
2017-05-28T02:41:03.864Z,0
2017-05-28T02:42:25.403Z,0
2017-05-28T02:43:47.245Z,0
2017-05-28T02:45:09.456Z,0
2017-05-28T02:46:31.926Z,0
2017-05-28T02:47:53.737Z,0
2017-05-28T02:49:15.890Z,5
2017-05-28T02:50:38.067Z,5
2017-05-28T02:51:59.904Z,5
2017-05-28T02:53:22.040Z,5
2017-05-28T02:54:43.540Z,5
2017-05-28T02:56:04.746Z,5
2017-05-28T02:57:26.913Z,10
2017-05-28T02:58:49.564Z,10
2017-05-28T03:00:11.408Z,10
2017-05-28T03:01:33.242Z,10
2017-05-28T03:02:55.083Z,10
2017-05-28T03:04:17.284Z,10
2017-05-28T03:05:39.474Z,10
2017-05-28T03:07:01.041Z,15
2017-05-28T03:08:23.068Z,15
2017-05-28T03:09:44.997Z,15
2017-05-28T03:11:06.824Z,15
2017-05-28T03:12:29.294Z,15
2017-05-28T03:13:50.592Z,20
2017-05-28T03:15:12.884Z,20
2017-05-28T03:16:34.760Z,20
2017-05-28T03:17:56.650Z,25
2017-05-28T03:19:19.003Z,25
2017-05-28T03:20:41.825Z,25
2017-05-28T03:22:03.663Z,30
2017-05-28T03:23:25.494Z,30
2017-05-28T03:24:47.662Z,30
2017-05-28T03:26:09.745Z,30
2017-05-28T03:27:32.224Z,30
2017-05-28T03:28:54.143Z,35
2017-05-28T03:30:15.971Z,35
2017-05-28T03:31:38.465Z,35
2017-05-28T03:32:59.967Z,35
2017-05-28T03:34:21.806Z,40
2017-05-28T03:35:43.643Z,40
2017-05-28T03:37:06.117Z,40
2017-05-28T03:38:28.120Z,40
2017-05-28T03:39:50.263Z,40
2017-05-28T03:41:11.862Z,45
2017-05-28T03:42:34.058Z,45
2017-05-28T03:43:56.334Z,45
2017-05-28T03:45:18.261Z,50
2017-05-28T03:46:40.731Z,50
2017-05-28T03:48:03.166Z,55
2017-05-28T03:49:25.583Z,55
2017-05-28T03:50:47.123Z,60
2017-05-28T03:52:09.283Z,60
2017-05-28T03:53:31.521Z,65
2017-05-28T03:54:53.459Z,70
2017-05-28T03:56:15.633Z,75
2017-05-28T03:57:37.877Z,80
2017-05-28T03:58:59.964Z,85
2017-05-28T04:00:21.802Z,90
2017-05-28T04:01:44.323Z,95
2017-05-28T04:03:05.519Z,95
2017-05-28T04:04:28.354Z,105
2017-05-28T04:05:50.548Z,105
2017-05-28T04:07:12.695Z,115
2017-05-28T04:08:33.904Z,120
2017-05-28T04:09:55.948Z,130
2017-05-28T04:11:18.073Z,135
2017-05-28T04:12:40.233Z,145
2017-05-28T04:14:02.082Z,150
2017-05-28T04:15:23.943Z,160
2017-05-28T04:16:45.454Z,165
2017-05-28T04:18:07.741Z,170
2017-05-28T04:19:29.884Z,170
2017-05-28T04:20:52.118Z,175
2017-05-28T04:22:13.947Z,175
2017-05-28T04:23:35.156Z,175
2017-05-28T04:24:57.324Z,180
2017-05-28T04:26:19.514Z,180
2017-05-28T04:27:41.653Z,185
2017-05-28T04:29:04.326Z,195
2017-05-28T04:30:26.794Z,200
2017-05-28T04:31:49.623Z,210
2017-05-28T04:33:11.825Z,220
2017-05-28T04:34:34.056Z,225
2017-05-28T04:35:56.206Z,230
2017-05-28T04:37:18.284Z,235
2017-05-28T04:38:40.810Z,245
2017-05-28T04:40:02.374Z,255
2017-05-28T04:41:24.524Z,265
2017-05-28T04:42:47.114Z,280
2017-05-28T04:44:09.325Z,295
2017-05-28T04:45:31.483Z,310
2017-05-28T04:46:53.303Z,315
2017-05-28T04:48:15.784Z,300
2017-05-28T04:49:37.923Z,285
2017-05-28T04:50:59.823Z,275
2017-05-28T04:52:21.971Z,270
2017-05-28T04:53:44.098Z,245
2017-05-28T04:55:05.934Z,225
2017-05-28T04:56:28.428Z,205
2017-05-28T04:57:50.384Z,350
2017-05-28T04:59:13.185Z,370
2017-05-28T05:00:35.174Z,190
2017-05-28T05:01:57.004Z,155
2017-05-28T05:03:19.241Z,150
2017-05-28T05:04:41.333Z,160
2017-05-28T05:06:03.674Z,165
2017-05-28T05:07:25.584Z,180
2017-05-28T05:08:47.095Z,200
2017-05-28T05:10:09.843Z,205
2017-05-28T05:11:32.145Z,205
2017-05-28T05:12:54.646Z,220
2017-05-28T05:14:16.166Z,235
2017-05-28T05:15:38.318Z,245
2017-05-28T05:16:59.836Z,250
2017-05-28T05:18:22.372Z,280
2017-05-28T05:19:44.314Z,350
2017-05-28T05:21:06.423Z,440
2017-05-28T05:22:28.273Z,495
2017-05-28T05:23:50.744Z,555
2017-05-28T05:25:12.954Z,600
2017-05-28T05:26:35.137Z,495
2017-05-28T05:27:56.704Z,450
2017-05-28T05:29:18.865Z,355
2017-05-28T05:30:41.102Z,325
2017-05-28T05:32:02.969Z,300
2017-05-28T05:33:24.825Z,275
2017-05-28T05:34:47.002Z,270
2017-05-28T05:36:08.843Z,225
2017-05-28T05:37:30.713Z,190
2017-05-28T05:38:52.962Z,140
2017-05-28T05:40:15.127Z,125
2017-05-28T05:41:37.294Z,135
2017-05-28T05:42:59.541Z,160
2017-05-28T05:44:21.697Z,175
2017-05-28T05:45:43.554Z,175
2017-05-28T05:47:05.848Z,145
2017-05-28T05:48:28.650Z,125
2017-05-28T05:49:50.604Z,120
2017-05-28T05:51:13.094Z,115
2017-05-28T05:52:35.563Z,120
2017-05-28T05:53:57.984Z,125
2017-05-28T05:55:19.846Z,125
2017-05-28T05:56:42.005Z,130
2017-05-28T05:58:03.994Z,135
2017-05-28T05:59:26.824Z,145
2017-05-28T06:00:49.384Z,145
2017-05-28T06:02:11.847Z,140
2017-05-28T06:03:34.120Z,135
2017-05-28T06:04:56.624Z,135
2017-05-28T06:06:18.153Z,135
2017-05-28T06:07:40.124Z,135
2017-05-28T06:09:02.453Z,140
2017-05-28T06:10:24.793Z,150
2017-05-28T06:11:47.275Z,145
2017-05-28T06:13:09.745Z,130
2017-05-28T06:14:31.903Z,110
2017-05-28T06:15:54.339Z,90
2017-05-28T06:17:15.235Z,75
2017-05-28T06:18:36.755Z,60
2017-05-28T06:19:59.238Z,50
2017-05-28T06:21:22.103Z,50
2017-05-28T06:22:44.665Z,50
2017-05-28T06:24:06.862Z,55
2017-05-28T06:25:29.006Z,60
2017-05-28T06:26:50.844Z,65
2017-05-28T06:28:12.362Z,65
2017-05-28T06:29:34.674Z,65
2017-05-28T06:30:56.813Z,65
2017-05-28T06:32:19.012Z,70
2017-05-28T06:33:41.298Z,70
2017-05-28T06:35:04.233Z,70
2017-05-28T06:36:26.534Z,70
2017-05-28T06:37:49.003Z,65
2017-05-28T06:39:11.154Z,70
2017-05-28T06:40:33.374Z,70
2017-05-28T06:41:55.544Z,70
2017-05-28T06:43:18.253Z,70
2017-05-28T06:44:40.424Z,70
2017-05-28T06:46:02.275Z,65
2017-05-28T06:47:24.797Z,65
2017-05-28T06:48:47.014Z,60
2017-05-28T06:50:08.887Z,60
2017-05-28T06:51:30.464Z,70
2017-05-28T06:52:52.320Z,75
2017-05-28T06:54:14.778Z,85
2017-05-28T06:55:36.955Z,100
2017-05-28T06:56:59.453Z,100
2017-05-28T06:58:21.615Z,90
2017-05-28T06:59:44.514Z,70
2017-05-28T07:01:06.708Z,55
2017-05-28T07:02:28.873Z,50
2017-05-28T07:03:51.095Z,50
2017-05-28T07:05:13.383Z,55
2017-05-28T07:06:35.203Z,60
2017-05-28T07:07:57.701Z,70
2017-05-28T07:09:19.553Z,75
2017-05-28T07:10:42.383Z,80
2017-05-28T07:12:04.554Z,90
2017-05-28T07:13:27.044Z,105
2017-05-28T07:14:48.887Z,115
2017-05-28T07:16:11.071Z,135
2017-05-28T07:17:33.233Z,160
2017-05-28T07:18:55.443Z,180
2017-05-28T07:20:17.640Z,205
2017-05-28T07:21:39.758Z,225
2017-05-28T07:23:01.834Z,215
2017-05-28T07:24:23.813Z,195
2017-05-28T07:25:45.694Z,205
2017-05-28T07:27:08.463Z,235
2017-05-28T07:28:30.313Z,285
2017-05-28T07:29:52.892Z,335
2017-05-28T07:31:14.843Z,345
2017-05-28T07:32:36.665Z,305
2017-05-28T07:33:59.153Z,300
2017-05-28T07:35:21.330Z,330
2017-05-28T07:36:43.624Z,330
2017-05-28T07:38:06.134Z,350
2017-05-28T07:39:28.704Z,360
2017-05-28T07:40:51.213Z,350
2017-05-28T07:42:13.374Z,335
2017-05-28T07:43:36.213Z,310
2017-05-28T07:44:58.397Z,295
2017-05-28T07:46:20.878Z,270
2017-05-28T07:47:43.042Z,255
2017-05-28T07:49:05.662Z,245
2017-05-28T07:50:27.841Z,240
2017-05-28T07:51:49.377Z,250
2017-05-28T07:53:11.241Z,280
2017-05-28T07:54:33.122Z,320
2017-05-28T07:55:54.957Z,350
2017-05-28T07:57:16.811Z,370
2017-05-28T07:58:38.965Z,370
2017-05-28T08:00:01.433Z,380
2017-05-28T08:01:23.284Z,415
2017-05-28T08:02:45.504Z,455
2017-05-28T08:04:08.301Z,450
2017-05-28T08:05:30.932Z,430
2017-05-28T08:06:52.903Z,405
2017-05-28T08:08:15.131Z,380
2017-05-28T08:09:37.331Z,365
2017-05-28T08:10:59.967Z,365
2017-05-28T08:12:21.831Z,395
2017-05-28T08:13:44.354Z,430
2017-05-28T08:15:06.271Z,420
2017-05-28T08:16:29.110Z,415
2017-05-28T08:17:51.322Z,405
2017-05-28T08:19:13.481Z,385
2017-05-28T08:20:35.344Z,380
2017-05-28T08:21:57.511Z,410
2017-05-28T08:23:19.667Z,400
2017-05-28T08:24:41.993Z,375
2017-05-28T08:26:04.514Z,370
2017-05-28T08:27:27.379Z,410
2017-05-28T08:28:49.914Z,455
2017-05-28T08:30:12.408Z,430
2017-05-28T08:31:34.674Z,430
2017-05-28T08:32:57.194Z,465
2017-05-28T08:34:19.369Z,475
2017-05-28T08:35:41.221Z,535
2017-05-28T08:37:03.047Z,580
2017-05-28T08:38:24.934Z,560
2017-05-28T08:39:47.122Z,535
2017-05-28T08:41:09.084Z,530
2017-05-28T08:42:30.951Z,500
2017-05-28T08:43:53.062Z,430
2017-05-28T08:45:15.326Z,445
2017-05-28T08:46:37.814Z,455
2017-05-28T08:47:59.654Z,415
2017-05-28T08:49:22.423Z,445
2017-05-28T08:50:44.908Z,500
2017-05-28T08:52:07.512Z,525
2017-05-28T08:53:29.783Z,505
2017-05-28T08:54:52.414Z,435
2017-05-28T08:56:14.690Z,380
2017-05-28T08:57:36.552Z,335
2017-05-28T08:58:58.822Z,335
2017-05-28T09:00:21.391Z,330
2017-05-28T09:01:42.612Z,330
2017-05-28T09:03:05.212Z,330
2017-05-28T09:04:27.072Z,330
2017-05-28T09:05:49.682Z,325
2017-05-28T09:07:11.843Z,380
2017-05-28T09:08:33.693Z,470
2017-05-28T09:09:55.668Z,540
2017-05-28T09:11:18.436Z,530
2017-05-28T09:12:40.792Z,480
2017-05-28T09:14:03.274Z,490
2017-05-28T09:15:25.432Z,535
2017-05-28T09:16:48.682Z,555
2017-05-28T09:18:10.544Z,555
2017-05-28T09:19:32.493Z,510
2017-05-28T09:20:54.351Z,480
2017-05-28T09:22:17.144Z,480
2017-05-28T09:23:39.789Z,495
2017-05-28T09:25:01.712Z,515
2017-05-28T09:26:23.914Z,495
2017-05-28T09:27:46.762Z,445
2017-05-28T09:29:09.045Z,405
2017-05-28T09:30:30.953Z,375
2017-05-28T09:31:53.134Z,365
2017-05-28T09:33:15.704Z,360
2017-05-28T09:34:37.567Z,385
2017-05-28T09:35:59.836Z,440
2017-05-28T09:37:22.012Z,450
2017-05-28T09:38:44.784Z,430
2017-05-28T09:40:07.270Z,420
2017-05-28T09:41:29.490Z,400
2017-05-28T09:42:51.983Z,380
2017-05-28T09:44:14.074Z,370
2017-05-28T09:45:35.937Z,350
2017-05-28T09:46:58.142Z,365
2017-05-28T09:48:19.684Z,345
2017-05-28T09:49:41.537Z,415
2017-05-28T09:51:04.032Z,400
2017-05-28T09:52:25.878Z,360
2017-05-28T09:53:48.053Z,340
2017-05-28T09:55:11.213Z,360
2017-05-28T09:56:33.395Z,375
2017-05-28T09:57:55.332Z,445
2017-05-28T09:59:17.647Z,445
2017-05-28T10:00:40.104Z,360
2017-05-28T10:02:02.602Z,325
2017-05-28T10:03:24.547Z,370
2017-05-28T10:04:46.537Z,375
2017-05-28T10:06:09.226Z,400
2017-05-28T10:07:31.074Z,390
2017-05-28T10:08:53.625Z,370
2017-05-28T10:10:15.853Z,355
2017-05-28T10:11:38.683Z,340
2017-05-28T10:13:00.560Z,325
2017-05-28T10:14:23.083Z,310
2017-05-28T10:15:45.576Z,305
2017-05-28T10:17:08.442Z,300
2017-05-28T10:18:30.285Z,300
2017-05-28T10:19:51.834Z,300
2017-05-28T10:21:14.045Z,295
2017-05-28T10:22:36.454Z,295
2017-05-28T10:23:57.693Z,295
2017-05-28T10:25:19.653Z,300
2017-05-28T10:26:41.241Z,310
2017-05-28T10:28:03.713Z,330
2017-05-28T10:29:25.963Z,320
2017-05-28T10:30:48.382Z,310
2017-05-28T10:32:10.554Z,320
2017-05-28T10:33:32.793Z,305
2017-05-28T10:34:54.334Z,295
2017-05-28T10:36:16.182Z,290
2017-05-28T10:37:38.403Z,275
2017-05-28T10:39:00.835Z,275
2017-05-28T10:40:22.555Z,280
2017-05-28T10:41:44.736Z,270
2017-05-28T10:43:07.316Z,265
2017-05-28T10:44:29.956Z,260
2017-05-28T10:45:52.124Z,255
2017-05-28T10:47:14.613Z,255
2017-05-28T10:48:36.793Z,255
2017-05-28T10:49:58.893Z,245
2017-05-28T10:51:20.843Z,265
2017-05-28T10:52:43.013Z,295
2017-05-28T10:54:04.891Z,270
2017-05-28T10:55:27.155Z,250
2017-05-28T10:56:49.336Z,240
2017-05-28T10:58:11.194Z,235
2017-05-28T10:59:33.672Z,230
2017-05-28T11:00:56.600Z,235
2017-05-28T11:02:19.161Z,235
2017-05-28T11:03:41.339Z,230
2017-05-28T11:05:03.211Z,230
2017-05-28T11:06:26.081Z,235
2017-05-28T11:07:48.044Z,235
2017-05-28T11:09:10.206Z,235
2017-05-28T11:10:32.068Z,235
2017-05-28T11:11:54.545Z,230
2017-05-28T11:13:16.713Z,230
2017-05-28T11:14:38.653Z,230
2017-05-28T11:16:00.496Z,230
2017-05-28T11:17:23.323Z,230
2017-05-28T11:18:45.482Z,230
2017-05-28T11:20:07.748Z,225
2017-05-28T11:21:29.712Z,220
2017-05-28T11:22:52.642Z,220
2017-05-28T11:24:14.812Z,225
2017-05-28T11:25:37.458Z,225
2017-05-28T11:26:59.961Z,225
2017-05-28T11:28:22.171Z,220
2017-05-28T11:29:44.020Z,220
2017-05-28T11:31:05.552Z,215
2017-05-28T11:32:27.405Z,215
2017-05-28T11:33:49.884Z,210
2017-05-28T11:35:11.733Z,205
2017-05-28T11:36:34.251Z,205
2017-05-28T11:37:56.761Z,205
2017-05-28T11:39:19.052Z,200
2017-05-28T11:40:41.203Z,205
2017-05-28T11:42:03.454Z,205
2017-05-28T11:43:25.943Z,200
2017-05-28T11:44:48.502Z,200
2017-05-28T11:46:11.122Z,200
2017-05-28T11:47:33.434Z,200
2017-05-28T11:48:55.945Z,200
2017-05-28T11:50:18.383Z,200
2017-05-28T11:51:40.629Z,200
2017-05-28T11:53:02.524Z,195
2017-05-28T11:54:25.033Z,195
2017-05-28T11:55:47.964Z,195
2017-05-28T11:57:10.427Z,195
2017-05-28T11:58:32.604Z,195
2017-05-28T11:59:54.850Z,195
2017-05-28T12:01:17.073Z,195
2017-05-28T12:02:39.544Z,195
2017-05-28T12:04:02.037Z,195
2017-05-28T12:05:24.201Z,190
2017-05-28T12:06:46.404Z,190
2017-05-28T12:08:08.346Z,190
2017-05-28T12:09:30.223Z,190
2017-05-28T12:10:52.543Z,195
2017-05-28T12:12:15.002Z,190
2017-05-28T12:13:37.170Z,190
2017-05-28T12:14:59.639Z,190
2017-05-28T12:16:21.932Z,190
2017-05-28T12:17:43.773Z,190
2017-05-28T12:19:05.953Z,190
2017-05-28T12:20:28.788Z,195
2017-05-28T12:21:50.970Z,210
2017-05-28T12:23:13.756Z,200
2017-05-28T12:24:35.933Z,200
2017-05-28T12:25:57.463Z,200
2017-05-28T12:27:19.629Z,225
2017-05-28T12:28:42.482Z,250
2017-05-28T12:30:04.164Z,250
2017-05-28T12:31:26.022Z,215
2017-05-28T12:32:48.606Z,215
2017-05-28T12:34:11.442Z,250
2017-05-28T12:35:33.164Z,265
2017-05-28T12:36:55.031Z,335
2017-05-28T12:38:17.505Z,385
2017-05-28T12:39:40.312Z,395
2017-05-28T12:41:02.813Z,425
2017-05-28T12:42:24.725Z,410
2017-05-28T12:43:47.210Z,365
2017-05-28T12:45:09.694Z,320
2017-05-28T12:46:31.864Z,335
2017-05-28T12:47:53.712Z,305
2017-05-28T12:49:15.923Z,305
2017-05-28T12:50:38.442Z,340
2017-05-28T12:52:00.646Z,360
2017-05-28T12:53:23.133Z,335
2017-05-28T12:54:44.363Z,260
2017-05-28T12:56:07.104Z,225
2017-05-28T12:57:29.262Z,215
2017-05-28T12:58:51.508Z,215
2017-05-28T13:00:13.383Z,230
2017-05-28T13:01:36.021Z,260
2017-05-28T13:02:58.206Z,250
2017-05-28T13:04:20.781Z,240
2017-05-28T13:05:42.943Z,215
2017-05-28T13:07:05.133Z,200
2017-05-28T13:08:27.292Z,200
2017-05-28T13:09:49.471Z,190
2017-05-28T13:11:10.802Z,190
2017-05-28T13:12:32.944Z,190
2017-05-28T13:13:54.809Z,190
2017-05-28T13:15:16.982Z,190
2017-05-28T13:16:38.904Z,190
2017-05-28T13:18:01.498Z,190
2017-05-28T13:19:23.758Z,190
2017-05-28T13:20:45.620Z,190
2017-05-28T13:22:07.472Z,190
2017-05-28T13:23:30.432Z,190
2017-05-28T13:24:53.053Z,190
2017-05-28T13:26:14.939Z,190
2017-05-28T13:27:37.153Z,195
2017-05-28T13:28:59.319Z,200
2017-05-28T13:30:21.541Z,195
2017-05-28T13:31:43.480Z,200
2017-05-28T13:33:05.672Z,200
2017-05-28T13:34:28.452Z,200
2017-05-28T13:35:50.622Z,200
2017-05-28T13:37:12.846Z,195
2017-05-28T13:38:35.531Z,195
2017-05-28T13:39:58.013Z,195
2017-05-28T13:41:19.619Z,190
2017-05-28T13:42:42.406Z,190
2017-05-28T13:44:04.702Z,195
2017-05-28T13:45:27.492Z,195
2017-05-28T13:46:49.683Z,195
2017-05-28T13:48:12.180Z,200
2017-05-28T13:49:34.066Z,200
2017-05-28T13:50:56.581Z,195
2017-05-28T13:52:19.148Z,200
2017-05-28T13:53:41.634Z,200
2017-05-28T13:55:03.900Z,205
2017-05-28T13:56:25.792Z,205
2017-05-28T13:57:48.353Z,205
2017-05-28T13:59:10.534Z,205
2017-05-28T14:00:33.011Z,200
2017-05-28T14:01:55.601Z,195
2017-05-28T14:03:18.098Z,190
2017-05-28T14:04:40.058Z,195
2017-05-28T14:06:02.380Z,190
2017-05-28T14:07:24.733Z,190
2017-05-28T14:08:46.930Z,190
2017-05-28T14:10:09.123Z,190
2017-05-28T14:11:31.000Z,185
2017-05-28T14:12:53.982Z,190
2017-05-28T14:14:15.534Z,185
2017-05-28T14:15:38.020Z,185
2017-05-28T14:16:59.873Z,185
2017-05-28T14:18:22.624Z,185
2017-05-28T14:19:45.120Z,185
2017-05-28T14:21:07.411Z,185
2017-05-28T14:22:29.688Z,185
2017-05-28T14:23:52.595Z,185
2017-05-28T14:25:14.498Z,185
2017-05-28T14:26:37.011Z,185
2017-05-28T14:27:59.262Z,180
2017-05-28T14:29:22.131Z,185
2017-05-28T14:30:44.611Z,180
2017-05-28T14:32:06.151Z,180
2017-05-28T14:33:28.330Z,175
2017-05-28T14:34:50.980Z,175
2017-05-28T14:36:12.834Z,180
2017-05-28T14:37:34.997Z,185
2017-05-28T14:38:56.911Z,185
2017-05-28T14:40:19.415Z,180
2017-05-28T14:41:41.594Z,180
2017-05-28T14:43:04.072Z,180
2017-05-28T14:44:26.350Z,185
2017-05-28T14:45:49.348Z,185
2017-05-28T14:47:11.200Z,185
2017-05-28T14:48:33.399Z,185
2017-05-28T14:49:55.612Z,180
2017-05-28T14:51:17.762Z,180
2017-05-28T14:52:39.639Z,175
2017-05-28T14:54:02.154Z,175
2017-05-28T14:55:24.384Z,175
2017-05-28T14:56:47.266Z,175
2017-05-28T14:58:09.139Z,175
2017-05-28T14:59:31.002Z,175
2017-05-28T15:00:53.200Z,150
2017-05-28T15:02:16.060Z,155
2017-05-28T15:03:38.247Z,150
2017-05-28T15:05:00.092Z,145
2017-05-28T15:06:22.273Z,165
2017-05-28T15:07:44.736Z,165
2017-05-28T15:09:07.357Z,175
2017-05-28T15:10:29.592Z,165
2017-05-28T15:11:52.079Z,165
2017-05-28T15:13:14.178Z,165
2017-05-28T15:14:36.361Z,160
2017-05-28T15:15:58.569Z,160
2017-05-28T15:17:21.110Z,160
2017-05-28T15:18:43.589Z,165
2017-05-28T15:20:05.810Z,160
2017-05-28T15:21:27.986Z,160
2017-05-28T15:22:50.520Z,160
2017-05-28T15:24:13.223Z,160
2017-05-28T15:25:35.721Z,165
2017-05-28T15:26:57.902Z,165
2017-05-28T15:28:20.400Z,165
2017-05-28T15:29:42.900Z,165
2017-05-28T15:31:04.903Z,165
2017-05-28T15:32:27.492Z,165
2017-05-28T15:33:50.018Z,170
2017-05-28T15:35:12.841Z,170
2017-05-28T15:36:35.006Z,170
2017-05-28T15:37:57.194Z,170
2017-05-28T15:39:18.770Z,170
2017-05-28T15:40:40.959Z,170
2017-05-28T15:42:03.155Z,170
2017-05-28T15:43:25.719Z,175
2017-05-28T15:44:47.710Z,170
2017-05-28T15:46:09.819Z,170
2017-05-28T15:47:32.071Z,170
2017-05-28T15:48:54.278Z,170
2017-05-28T15:50:15.848Z,170
2017-05-28T15:51:37.711Z,170
2017-05-28T15:53:00.240Z,170
2017-05-28T15:54:22.747Z,170
2017-05-28T15:55:45.017Z,165
2017-05-28T15:57:07.879Z,170
2017-05-28T15:58:30.042Z,170
2017-05-28T15:59:51.890Z,170
2017-05-28T16:01:14.401Z,175
2017-05-28T16:02:37.249Z,175
2017-05-28T16:03:59.820Z,175
2017-05-28T16:05:22.363Z,175
2017-05-28T16:06:44.559Z,175
2017-05-28T16:08:07.030Z,175
2017-05-28T16:09:29.559Z,180
2017-05-28T16:10:51.771Z,180
2017-05-28T16:12:14.443Z,180
2017-05-28T16:13:37.105Z,175
2017-05-28T16:14:59.282Z,175
2017-05-28T16:16:21.909Z,175
2017-05-28T16:17:44.168Z,175
2017-05-28T16:19:06.959Z,175
2017-05-28T16:20:29.130Z,175
2017-05-28T16:21:51.312Z,175
2017-05-28T16:23:13.483Z,170
2017-05-28T16:24:35.682Z,170
2017-05-28T16:25:57.569Z,165
2017-05-28T16:27:19.755Z,165
2017-05-28T16:28:42.473Z,170
2017-05-28T16:30:04.583Z,170
2017-05-28T16:31:26.878Z,170
2017-05-28T16:32:49.364Z,170
2017-05-28T16:34:11.249Z,170
2017-05-28T16:35:33.581Z,170
2017-05-28T16:36:55.759Z,170
2017-05-28T16:38:18.438Z,170
2017-05-28T16:39:40.780Z,175
2017-05-28T16:41:03.629Z,175
2017-05-28T16:42:25.993Z,175
2017-05-28T16:43:48.169Z,175
2017-05-28T16:45:09.530Z,175
2017-05-28T16:46:32.030Z,180
2017-05-28T16:47:54.537Z,180
2017-05-28T16:49:16.369Z,180
2017-05-28T16:50:38.632Z,185
2017-05-28T16:52:00.610Z,185
2017-05-28T16:53:22.802Z,185
2017-05-28T16:54:44.971Z,185
2017-05-28T16:56:07.161Z,185
2017-05-28T16:57:29.910Z,185
2017-05-28T16:58:52.400Z,185
2017-05-28T17:00:14.739Z,180
2017-05-28T17:01:37.294Z,175
2017-05-28T17:02:59.840Z,175
2017-05-28T17:04:22.126Z,175
2017-05-28T17:05:43.843Z,175
2017-05-28T17:07:06.087Z,170
2017-05-28T17:08:28.594Z,170
2017-05-28T17:09:50.164Z,170
2017-05-28T17:11:12.348Z,165
2017-05-28T17:12:36.322Z,165
2017-05-28T17:13:59.059Z,165
2017-05-28T17:15:21.114Z,165
2017-05-28T17:16:42.998Z,165
2017-05-28T17:18:05.293Z,165
2017-05-28T17:19:28.092Z,160
2017-05-28T17:20:50.609Z,160
2017-05-28T17:22:12.172Z,165
2017-05-28T17:23:34.371Z,160
2017-05-28T17:24:56.920Z,165
2017-05-28T17:26:19.438Z,165
2017-05-28T17:27:41.293Z,160
2017-05-28T17:29:03.831Z,160
2017-05-28T17:30:26.401Z,165
2017-05-28T17:31:48.673Z,165
2017-05-28T17:33:10.555Z,165
2017-05-28T17:34:33.060Z,165
2017-05-28T17:35:55.560Z,165
2017-05-28T17:37:17.762Z,160
2017-05-28T17:38:40.311Z,160
2017-05-28T17:40:02.494Z,165
2017-05-28T17:41:24.773Z,165
2017-05-28T17:42:47.268Z,165
2017-05-28T17:44:09.908Z,165
2017-05-28T17:45:31.924Z,165
2017-05-28T17:46:54.416Z,160
2017-05-28T17:48:16.897Z,160
2017-05-28T17:49:39.393Z,160
2017-05-28T17:51:00.923Z,160
2017-05-28T17:52:23.869Z,155
2017-05-28T17:53:46.051Z,160
2017-05-28T17:55:08.561Z,155
2017-05-28T17:56:30.717Z,150
2017-05-28T17:57:53.232Z,140
2017-05-28T17:59:15.431Z,135
2017-05-28T18:00:37.614Z,130
2017-05-28T18:01:59.789Z,125
2017-05-28T18:03:22.535Z,120
2017-05-28T18:04:45.021Z,120
2017-05-28T18:06:07.501Z,115
2017-05-28T18:07:29.723Z,110
2017-05-28T18:08:52.221Z,105
2017-05-28T18:10:14.719Z,105
2017-05-28T18:11:36.582Z,100
2017-05-28T18:12:58.424Z,100
2017-05-28T18:14:20.569Z,100
2017-05-28T18:15:42.444Z,100
2017-05-28T18:17:04.943Z,100
2017-05-28T18:18:27.432Z,100
2017-05-28T18:19:50.195Z,95
2017-05-28T18:21:12.371Z,95
2017-05-28T18:22:34.632Z,95
2017-05-28T18:23:56.222Z,90
2017-05-28T18:25:19.122Z,90
2017-05-28T18:26:41.321Z,90
2017-05-28T18:28:03.285Z,90
2017-05-28T18:29:25.492Z,90
2017-05-28T18:30:48.023Z,85
2017-05-28T18:32:09.990Z,85
2017-05-28T18:33:32.508Z,80
2017-05-28T18:34:54.733Z,80
2017-05-28T18:36:17.223Z,75
2017-05-28T18:37:39.413Z,75
2017-05-28T18:39:01.643Z,75
2017-05-28T18:40:23.523Z,70
2017-05-28T18:41:46.444Z,70
2017-05-28T18:43:08.942Z,70
2017-05-28T18:44:31.172Z,65
2017-05-28T18:45:53.405Z,65
2017-05-28T18:47:16.272Z,60
2017-05-28T18:48:38.433Z,60
2017-05-28T18:50:00.906Z,55
2017-05-28T18:51:23.421Z,55
2017-05-28T18:52:45.890Z,55
2017-05-28T18:54:08.374Z,50
2017-05-28T18:55:30.874Z,50
2017-05-28T18:56:53.064Z,50
2017-05-28T18:58:16.013Z,45
2017-05-28T18:59:38.541Z,45
2017-05-28T19:01:01.058Z,50
2017-05-28T19:02:23.571Z,45
2017-05-28T19:03:46.577Z,45
2017-05-28T19:05:09.165Z,40
2017-05-28T19:06:31.683Z,40
2017-05-28T19:07:54.293Z,40
2017-05-28T19:09:16.784Z,40
2017-05-28T19:10:39.287Z,35